sensor_id;sensor_type;location;lat;lon;timestamp;temperature;humidity
5118;DHT22;2578;51.622;7.046;2022-12-18T00:01:41;-9.70;99.90
5118;DHT22;2578;51.622;7.046;2022-12-18T00:04:21;-9.00;99.90
5118;DHT22;2578;51.622;7.046;2022-12-18T00:06:47;-9.70;99.90
5118;DHT22;2578;51.622;7.046;2022-12-18T00:09:13;-9.70;99.90
5118;DHT22;2578;51.622;7.046;2022-12-18T00:11:38;-9.60;99.90
5118;DHT22;2578;51.622;7.046;2022-12-18T00:14:04;-9.60;99.90
5118;DHT22;2578;51.622;7.046;2022-12-18T00:16:29;-9.60;99.90
5118;DHT22;2578;51.622;7.046;2022-12-18T00:18:58;-9.50;99.90
5118;DHT22;2578;51.622;7.046;2022-12-18T00:21:25;-9.50;99.90
5118;DHT22;2578;51.622;7.046;2022-12-18T00:23:51;-9.50;99.90
5118;DHT22;2578;51.622;7.046;2022-12-18T00:26:26;-9.40;99.90
5118;DHT22;2578;51.622;7.046;2022-12-18T00:28:52;-9.50;99.90
5118;DHT22;2578;51.622;7.046;2022-12-18T00:31:20;-9.60;99.90
5118;DHT22;2578;51.622;7.046;2022-12-18T00:33:47;-9.60;99.90
5118;DHT22;2578;51.622;7.046;2022-12-18T00:36:15;-9.60;99.90
5118;DHT22;2578;51.622;7.046;2022-12-18T00:38:41;-9.70;99.90
5118;DHT22;2578;51.622;7.046;2022-12-18T00:41:07;-9.60;99.90
5118;DHT22;2578;51.622;7.046;2022-12-18T00:43:33;-9.60;99.90
5118;DHT22;2578;51.622;7.046;2022-12-18T00:45:59;-9.50;99.90
5118;DHT22;2578;51.622;7.046;2022-12-18T00:48:24;-9.40;99.90
5118;DHT22;2578;51.622;7.046;2022-12-18T00:50:50;-9.40;99.90
5118;DHT22;2578;51.622;7.046;2022-12-18T00:53:17;-9.40;99.90
5118;DHT22;2578;51.622;7.046;2022-12-18T00:55:43;-9.50;99.90
5118;DHT22;2578;51.622;7.046;2022-12-18T00:58:10;-9.70;99.90
5118;DHT22;2578;51.622;7.046;2022-12-18T01:00:36;-9.70;99.90
5118;DHT22;2578;51.622;7.046;2022-12-18T01:03:02;-9.60;99.90
5118;DHT22;2578;51.622;7.046;2022-12-18T01:05:28;-9.50;99.90
5118;DHT22;2578;51.622;7.046;2022-12-18T01:07:54;-9.50;99.90
5118;DHT22;2578;51.622;7.046;2022-12-18T01:10:20;-9.20;99.90
5118;DHT22;2578;51.622;7.046;2022-12-18T01:12:46;-9.70;99.90
5118;DHT22;2578;51.622;7.046;2022-12-18T01:15:13;-9.70;99.90
5118;DHT22;2578;51.622;7.046;2022-12-18T01:17:39;-9.80;99.90
5118;DHT22;2578;51.622;7.046;2022-12-18T01:20:04;-9.80;99.90
5118;DHT22;2578;51.622;7.046;2022-12-18T01:22:30;-9.70;99.90
5118;DHT22;2578;51.622;7.046;2022-12-18T01:24:59;-9.80;99.90
5118;DHT22;2578;51.622;7.046;2022-12-18T01:27:25;-10.00;99.90
5118;DHT22;2578;51.622;7.046;2022-12-18T01:29:51;-9.90;99.90
5118;DHT22;2578;51.622;7.046;2022-12-18T01:32:17;-10.00;99.90
5118;DHT22;2578;51.622;7.046;2022-12-18T01:34:42;-9.90;99.90
5118;DHT22;2578;51.622;7.046;2022-12-18T01:37:08;-9.90;99.90
5118;DHT22;2578;51.622;7.046;2022-12-18T01:39:34;-9.80;99.90
5118;DHT22;2578;51.622;7.046;2022-12-18T01:42:02;-9.80;99.90
5118;DHT22;2578;51.622;7.046;2022-12-18T01:47:36;-9.70;99.90
5118;DHT22;2578;51.622;7.046;2022-12-18T01:50:13;-9.50;99.90
5118;DHT22;2578;51.622;7.046;2022-12-18T01:52:41;-9.50;99.90
5118;DHT22;2578;51.622;7.046;2022-12-18T01:55:08;-9.50;99.90
5118;DHT22;2578;51.622;7.046;2022-12-18T01:57:34;-9.30;99.90
5118;DHT22;2578;51.622;7.046;2022-12-18T02:00:04;-9.40;99.90
5118;DHT22;2578;51.622;7.046;2022-12-18T02:02:30;-9.30;99.90
5118;DHT22;2578;51.622;7.046;2022-12-18T02:04:56;-9.30;99.90
5118;DHT22;2578;51.622;7.046;2022-12-18T02:07:52;-9.20;99.90
5118;DHT22;2578;51.622;7.046;2022-12-18T02:16:14;-9.40;99.90
5118;DHT22;2578;51.622;7.046;2022-12-18T02:18:48;-9.40;99.90
5118;DHT22;2578;51.622;7.046;2022-12-18T02:24:03;-9.40;99.90
5118;DHT22;2578;51.622;7.046;2022-12-18T02:26:40;-9.40;99.90
5118;DHT22;2578;51.622;7.046;2022-12-18T02:29:20;-9.30;99.90
5118;DHT22;2578;51.622;7.046;2022-12-18T02:31:52;-9.00;99.90
5118;DHT22;2578;51.622;7.046;2022-12-18T02:34:20;-8.90;99.90
5118;DHT22;2578;51.622;7.046;2022-12-18T02:36:48;-8.70;99.90
5118;DHT22;2578;51.622;7.046;2022-12-18T02:39:15;-8.80;99.90
5118;DHT22;2578;51.622;7.046;2022-12-18T02:41:41;-9.00;99.90
5118;DHT22;2578;51.622;7.046;2022-12-18T02:44:12;-9.10;99.90
5118;DHT22;2578;51.622;7.046;2022-12-18T02:46:41;-9.00;99.90
5118;DHT22;2578;51.622;7.046;2022-12-18T02:51:55;-8.80;99.90
5118;DHT22;2578;51.622;7.046;2022-12-18T02:55:28;-8.90;99.90
5118;DHT22;2578;51.622;7.046;2022-12-18T03:00:22;-9.20;99.90
5118;DHT22;2578;51.622;7.046;2022-12-18T03:03:03;-9.20;99.90
5118;DHT22;2578;51.622;7.046;2022-12-18T03:05:45;-9.30;99.90
5118;DHT22;2578;51.622;7.046;2022-12-18T03:08:31;-9.40;99.90
5118;DHT22;2578;51.622;7.046;2022-12-18T03:11:02;-9.30;99.90
5118;DHT22;2578;51.622;7.046;2022-12-18T03:13:49;-9.30;99.90
5118;DHT22;2578;51.622;7.046;2022-12-18T03:16:22;-9.10;99.90
5118;DHT22;2578;51.622;7.046;2022-12-18T03:18:59;-9.10;99.90
5118;DHT22;2578;51.622;7.046;2022-12-18T03:21:34;-9.10;99.90
5118;DHT22;2578;51.622;7.046;2022-12-18T03:24:01;-9.10;99.90
5118;DHT22;2578;51.622;7.046;2022-12-18T03:26:29;-9.10;99.90
5118;DHT22;2578;51.622;7.046;2022-12-18T03:29:03;-9.10;99.90
5118;DHT22;2578;51.622;7.046;2022-12-18T03:31:31;-9.20;99.90
5118;DHT22;2578;51.622;7.046;2022-12-18T03:34:09;-9.20;99.90
5118;DHT22;2578;51.622;7.046;2022-12-18T03:36:35;-9.30;99.90
5118;DHT22;2578;51.622;7.046;2022-12-18T03:39:00;-9.30;99.90
5118;DHT22;2578;51.622;7.046;2022-12-18T03:41:45;-9.50;99.90
5118;DHT22;2578;51.622;7.046;2022-12-18T03:52:38;-9.00;99.90
5118;DHT22;2578;51.622;7.046;2022-12-18T03:55:07;-9.00;99.90
5118;DHT22;2578;51.622;7.046;2022-12-18T03:57:33;-9.00;99.90
5118;DHT22;2578;51.622;7.046;2022-12-18T04:00:07;-9.10;99.90
5118;DHT22;2578;51.622;7.046;2022-12-18T04:02:34;-9.10;99.90
5118;DHT22;2578;51.622;7.046;2022-12-18T04:05:04;-9.10;99.90
5118;DHT22;2578;51.622;7.046;2022-12-18T04:07:32;-9.10;99.90
5118;DHT22;2578;51.622;7.046;2022-12-18T04:10:01;-9.10;99.90
5118;DHT22;2578;51.622;7.046;2022-12-18T04:12:29;-9.00;99.90
5118;DHT22;2578;51.622;7.046;2022-12-18T04:14:55;-9.00;99.90
5118;DHT22;2578;51.622;7.046;2022-12-18T04:17:21;-8.90;99.90
5118;DHT22;2578;51.622;7.046;2022-12-18T04:19:48;-8.90;99.90
5118;DHT22;2578;51.622;7.046;2022-12-18T04:22:13;-8.90;99.90
5118;DHT22;2578;51.622;7.046;2022-12-18T04:24:39;-8.90;99.90
5118;DHT22;2578;51.622;7.046;2022-12-18T04:27:05;-8.90;99.90
5118;DHT22;2578;51.622;7.046;2022-12-18T04:29:30;-8.80;99.90
5118;DHT22;2578;51.622;7.046;2022-12-18T04:31:56;-8.80;99.90
5118;DHT22;2578;51.622;7.046;2022-12-18T04:34:22;-8.90;99.90
5118;DHT22;2578;51.622;7.046;2022-12-18T04:36:47;-8.90;99.90
5118;DHT22;2578;51.622;7.046;2022-12-18T04:39:13;-9.00;99.90
5118;DHT22;2578;51.622;7.046;2022-12-18T04:41:39;-9.10;99.90
5118;DHT22;2578;51.622;7.046;2022-12-18T04:44:05;-9.10;99.90
5118;DHT22;2578;51.622;7.046;2022-12-18T04:46:30;-8.40;99.90
5118;DHT22;2578;51.622;7.046;2022-12-18T04:48:56;-8.90;99.90
5118;DHT22;2578;51.622;7.046;2022-12-18T04:51:21;-8.90;99.90
5118;DHT22;2578;51.622;7.046;2022-12-18T04:53:47;-8.90;99.90
5118;DHT22;2578;51.622;7.046;2022-12-18T04:56:14;-9.00;99.90
5118;DHT22;2578;51.622;7.046;2022-12-18T04:58:42;-9.20;99.90
5118;DHT22;2578;51.622;7.046;2022-12-18T05:01:09;-9.40;99.90
5118;DHT22;2578;51.622;7.046;2022-12-18T05:03:35;-9.40;99.90
5118;DHT22;2578;51.622;7.046;2022-12-18T05:06:02;-9.40;99.90
5118;DHT22;2578;51.622;7.046;2022-12-18T05:08:27;-9.40;99.90
5118;DHT22;2578;51.622;7.046;2022-12-18T05:13:29;-9.20;99.90
5118;DHT22;2578;51.622;7.046;2022-12-18T05:15:55;-9.20;99.90
5118;DHT22;2578;51.622;7.046;2022-12-18T05:18:21;-9.10;99.90
5118;DHT22;2578;51.622;7.046;2022-12-18T05:20:47;-9.10;99.90
5118;DHT22;2578;51.622;7.046;2022-12-18T05:23:13;-9.10;99.90
5118;DHT22;2578;51.622;7.046;2022-12-18T05:25:38;-9.20;99.90
5118;DHT22;2578;51.622;7.046;2022-12-18T05:28:04;-9.30;99.90
5118;DHT22;2578;51.622;7.046;2022-12-18T05:30:29;-9.10;99.90
5118;DHT22;2578;51.622;7.046;2022-12-18T05:32:55;-9.10;99.90
5118;DHT22;2578;51.622;7.046;2022-12-18T05:35:21;-9.00;99.90
5118;DHT22;2578;51.622;7.046;2022-12-18T05:37:46;-8.90;99.90
5118;DHT22;2578;51.622;7.046;2022-12-18T05:40:12;-9.00;99.90
5118;DHT22;2578;51.622;7.046;2022-12-18T05:42:38;-9.20;99.90
5118;DHT22;2578;51.622;7.046;2022-12-18T05:45:04;-9.30;99.90
5118;DHT22;2578;51.622;7.046;2022-12-18T05:47:30;-9.30;99.90
5118;DHT22;2578;51.622;7.046;2022-12-18T05:49:56;-9.30;99.90
5118;DHT22;2578;51.622;7.046;2022-12-18T05:52:21;-9.30;99.90
5118;DHT22;2578;51.622;7.046;2022-12-18T05:54:47;-9.30;99.90
5118;DHT22;2578;51.622;7.046;2022-12-18T05:57:13;-9.40;99.90
5118;DHT22;2578;51.622;7.046;2022-12-18T05:59:38;-9.30;99.90
5118;DHT22;2578;51.622;7.046;2022-12-18T06:02:04;-9.20;99.90
5118;DHT22;2578;51.622;7.046;2022-12-18T06:04:30;-9.10;99.90
5118;DHT22;2578;51.622;7.046;2022-12-18T06:06:55;-9.00;99.90
5118;DHT22;2578;51.622;7.046;2022-12-18T06:09:21;-9.10;99.90
5118;DHT22;2578;51.622;7.046;2022-12-18T06:11:46;-9.20;99.90
5118;DHT22;2578;51.622;7.046;2022-12-18T06:14:12;-9.20;99.90
5118;DHT22;2578;51.622;7.046;2022-12-18T06:16:38;-9.20;99.90
5118;DHT22;2578;51.622;7.046;2022-12-18T06:19:05;-9.20;99.90
5118;DHT22;2578;51.622;7.046;2022-12-18T06:21:31;-9.20;99.90
5118;DHT22;2578;51.622;7.046;2022-12-18T06:23:57;-9.20;99.90
5118;DHT22;2578;51.622;7.046;2022-12-18T06:26:23;-9.30;99.90
5118;DHT22;2578;51.622;7.046;2022-12-18T06:28:49;-9.20;99.90
5118;DHT22;2578;51.622;7.046;2022-12-18T06:31:14;-9.20;99.90
5118;DHT22;2578;51.622;7.046;2022-12-18T06:33:40;-9.20;99.90
5118;DHT22;2578;51.622;7.046;2022-12-18T06:36:11;-9.10;99.90
5118;DHT22;2578;51.622;7.046;2022-12-18T06:38:39;-9.20;99.90
5118;DHT22;2578;51.622;7.046;2022-12-18T06:41:13;-9.40;99.90
5118;DHT22;2578;51.622;7.046;2022-12-18T06:43:39;-9.40;99.90
5118;DHT22;2578;51.622;7.046;2022-12-18T06:46:05;-9.30;99.90
5118;DHT22;2578;51.622;7.046;2022-12-18T06:48:31;-9.30;99.90
5118;DHT22;2578;51.622;7.046;2022-12-18T06:50:57;-9.40;99.90
5118;DHT22;2578;51.622;7.046;2022-12-18T06:53:23;-9.40;99.90
5118;DHT22;2578;51.622;7.046;2022-12-18T06:55:49;-9.40;99.90
5118;DHT22;2578;51.622;7.046;2022-12-18T06:58:14;-9.40;99.90
5118;DHT22;2578;51.622;7.046;2022-12-18T07:00:40;-11.30;99.90
5118;DHT22;2578;51.622;7.046;2022-12-18T07:03:06;-9.50;99.90
5118;DHT22;2578;51.622;7.046;2022-12-18T07:05:31;-9.50;99.90
5118;DHT22;2578;51.622;7.046;2022-12-18T07:07:57;-7.10;99.90
5118;DHT22;2578;51.622;7.046;2022-12-18T07:10:23;-9.40;99.90
5118;DHT22;2578;51.622;7.046;2022-12-18T07:12:49;-9.40;99.90
5118;DHT22;2578;51.622;7.046;2022-12-18T07:15:14;-9.30;99.90
5118;DHT22;2578;51.622;7.046;2022-12-18T07:17:40;-9.30;99.90
5118;DHT22;2578;51.622;7.046;2022-12-18T07:20:06;-9.30;99.90
5118;DHT22;2578;51.622;7.046;2022-12-18T07:22:32;-9.30;99.90
5118;DHT22;2578;51.622;7.046;2022-12-18T07:24:57;-9.30;99.90
5118;DHT22;2578;51.622;7.046;2022-12-18T07:27:24;-9.30;99.90
5118;DHT22;2578;51.622;7.046;2022-12-18T07:29:49;-9.30;99.90
5118;DHT22;2578;51.622;7.046;2022-12-18T07:32:15;-9.40;99.90
5118;DHT22;2578;51.622;7.046;2022-12-18T07:34:41;-9.50;99.90
5118;DHT22;2578;51.622;7.046;2022-12-18T07:37:07;-9.40;99.90
5118;DHT22;2578;51.622;7.046;2022-12-18T07:39:32;-9.40;99.90
5118;DHT22;2578;51.622;7.046;2022-12-18T07:41:58;-9.40;99.90
5118;DHT22;2578;51.622;7.046;2022-12-18T07:45:03;-9.40;99.90
5118;DHT22;2578;51.622;7.046;2022-12-18T07:47:33;-9.40;99.90
5118;DHT22;2578;51.622;7.046;2022-12-18T07:49:59;-9.40;99.90
5118;DHT22;2578;51.622;7.046;2022-12-18T07:52:25;-9.30;99.90
5118;DHT22;2578;51.622;7.046;2022-12-18T07:54:50;-9.20;99.90
5118;DHT22;2578;51.622;7.046;2022-12-18T07:57:17;-9.10;99.90
5118;DHT22;2578;51.622;7.046;2022-12-18T07:59:43;-8.80;99.90
5118;DHT22;2578;51.622;7.046;2022-12-18T08:02:08;-8.50;99.90
5118;DHT22;2578;51.622;7.046;2022-12-18T08:04:34;-8.30;99.90
5118;DHT22;2578;51.622;7.046;2022-12-18T08:07:00;-8.10;99.90
5118;DHT22;2578;51.622;7.046;2022-12-18T08:09:26;-7.90;99.90
5118;DHT22;2578;51.622;7.046;2022-12-18T08:11:51;-7.80;99.90
5118;DHT22;2578;51.622;7.046;2022-12-18T08:14:17;-7.60;99.90
5118;DHT22;2578;51.622;7.046;2022-12-18T08:16:42;-7.60;99.90
5118;DHT22;2578;51.622;7.046;2022-12-18T08:19:09;-7.70;99.90
5118;DHT22;2578;51.622;7.046;2022-12-18T08:21:35;-7.70;99.90
5118;DHT22;2578;51.622;7.046;2022-12-18T08:24:01;-7.60;99.90
5118;DHT22;2578;51.622;7.046;2022-12-18T08:26:29;-7.30;99.90
5118;DHT22;2578;51.622;7.046;2022-12-18T08:28:56;-7.20;99.90
5118;DHT22;2578;51.622;7.046;2022-12-18T08:31:23;-7.20;99.90
5118;DHT22;2578;51.622;7.046;2022-12-18T08:33:50;-7.00;99.90
5118;DHT22;2578;51.622;7.046;2022-12-18T08:36:16;-6.80;99.90
5118;DHT22;2578;51.622;7.046;2022-12-18T08:38:42;-6.50;99.90
5118;DHT22;2578;51.622;7.046;2022-12-18T08:41:11;-6.30;99.90
5118;DHT22;2578;51.622;7.046;2022-12-18T08:43:37;-6.30;99.90
5118;DHT22;2578;51.622;7.046;2022-12-18T08:46:23;-6.20;99.90
5118;DHT22;2578;51.622;7.046;2022-12-18T08:48:51;-5.90;99.90
5118;DHT22;2578;51.622;7.046;2022-12-18T08:51:17;-5.60;99.90
5118;DHT22;2578;51.622;7.046;2022-12-18T08:53:43;-5.40;99.90
5118;DHT22;2578;51.622;7.046;2022-12-18T08:56:10;-5.30;99.90
5118;DHT22;2578;51.622;7.046;2022-12-18T08:58:35;-5.10;99.90
5118;DHT22;2578;51.622;7.046;2022-12-18T09:01:05;-4.70;99.90
5118;DHT22;2578;51.622;7.046;2022-12-18T09:03:31;-4.70;99.90
5118;DHT22;2578;51.622;7.046;2022-12-18T09:05:56;-4.50;99.90
5118;DHT22;2578;51.622;7.046;2022-12-18T09:08:22;-4.40;99.90
5118;DHT22;2578;51.622;7.046;2022-12-18T09:10:49;-4.00;99.90
5118;DHT22;2578;51.622;7.046;2022-12-18T09:13:16;-3.90;99.90
5118;DHT22;2578;51.622;7.046;2022-12-18T09:15:47;-3.60;99.90
5118;DHT22;2578;51.622;7.046;2022-12-18T09:18:14;-3.20;99.90
5118;DHT22;2578;51.622;7.046;2022-12-18T09:20:41;-3.30;99.90
5118;DHT22;2578;51.622;7.046;2022-12-18T09:23:07;-2.90;99.90
5118;DHT22;2578;51.622;7.046;2022-12-18T09:25:33;-0.30;99.90
5118;DHT22;2578;51.622;7.046;2022-12-18T09:28:05;-2.60;99.90
5118;DHT22;2578;51.622;7.046;2022-12-18T09:30:32;-2.30;99.90
5118;DHT22;2578;51.622;7.046;2022-12-18T09:33:00;-2.20;99.90
5118;DHT22;2578;51.622;7.046;2022-12-18T09:35:26;-0.70;99.90
5118;DHT22;2578;51.622;7.046;2022-12-18T09:37:53;-0.90;99.90
5118;DHT22;2578;51.622;7.046;2022-12-18T09:40:23;-0.20;99.90
5118;DHT22;2578;51.622;7.046;2022-12-18T09:42:55;0.40;99.90
5118;DHT22;2578;51.622;7.046;2022-12-18T09:45:23;0.90;99.90
5118;DHT22;2578;51.622;7.046;2022-12-18T09:47:50;1.50;99.90
5118;DHT22;2578;51.622;7.046;2022-12-18T09:50:35;2.00;99.90
5118;DHT22;2578;51.622;7.046;2022-12-18T09:53:06;2.40;99.90
5118;DHT22;2578;51.622;7.046;2022-12-18T09:55:38;2.60;99.90
5118;DHT22;2578;51.622;7.046;2022-12-18T09:58:26;2.80;99.90
5118;DHT22;2578;51.622;7.046;2022-12-18T10:00:53;3.20;99.90
5118;DHT22;2578;51.622;7.046;2022-12-18T10:03:19;3.10;99.90
5118;DHT22;2578;51.622;7.046;2022-12-18T10:05:53;3.10;99.90
5118;DHT22;2578;51.622;7.046;2022-12-18T10:08:34;3.10;99.90
5118;DHT22;2578;51.622;7.046;2022-12-18T10:16:29;2.50;99.90
5118;DHT22;2578;51.622;7.046;2022-12-18T10:22:25;2.60;99.90
5118;DHT22;2578;51.622;7.046;2022-12-18T10:25:17;2.40;99.90
5118;DHT22;2578;51.622;7.046;2022-12-18T10:27:44;2.30;99.90
5118;DHT22;2578;51.622;7.046;2022-12-18T10:30:18;2.20;99.90
5118;DHT22;2578;51.622;7.046;2022-12-18T10:32:44;2.10;99.90
5118;DHT22;2578;51.622;7.046;2022-12-18T10:35:23;2.00;99.90
5118;DHT22;2578;51.622;7.046;2022-12-18T10:40:35;1.40;99.90
5118;DHT22;2578;51.622;7.046;2022-12-18T10:43:13;1.40;99.90
5118;DHT22;2578;51.622;7.046;2022-12-18T10:45:40;1.20;99.90
5118;DHT22;2578;51.622;7.046;2022-12-18T10:48:18;1.20;99.90
5118;DHT22;2578;51.622;7.046;2022-12-18T10:50:48;1.00;99.90
5118;DHT22;2578;51.622;7.046;2022-12-18T10:53:21;1.00;99.90
5118;DHT22;2578;51.622;7.046;2022-12-18T10:55:47;1.10;99.90
5118;DHT22;2578;51.622;7.046;2022-12-18T10:58:54;1.20;99.90
5118;DHT22;2578;51.622;7.046;2022-12-18T11:01:15;0.70;99.90
5118;DHT22;2578;51.622;7.046;2022-12-18T11:03:45;0.70;99.90
5118;DHT22;2578;51.622;7.046;2022-12-18T11:06:20;0.70;99.90
5118;DHT22;2578;51.622;7.046;2022-12-18T11:09:22;0.60;99.90
5118;DHT22;2578;51.622;7.046;2022-12-18T11:11:50;0.60;99.90
5118;DHT22;2578;51.622;7.046;2022-12-18T11:14:49;0.50;99.90
5118;DHT22;2578;51.622;7.046;2022-12-18T11:17:32;0.40;99.90
5118;DHT22;2578;51.622;7.046;2022-12-18T11:20:02;0.40;99.90
5118;DHT22;2578;51.622;7.046;2022-12-18T11:22:34;0.30;99.90
5118;DHT22;2578;51.622;7.046;2022-12-18T11:25:26;0.20;99.90
5118;DHT22;2578;51.622;7.046;2022-12-18T11:28:03;0.20;99.90
5118;DHT22;2578;51.622;7.046;2022-12-18T11:30:34;0.10;99.90
5118;DHT22;2578;51.622;7.046;2022-12-18T11:33:10;0.10;99.90
5118;DHT22;2578;51.622;7.046;2022-12-18T11:35:58;0.00;99.90
5118;DHT22;2578;51.622;7.046;2022-12-18T11:38:36;-0.10;99.90
5118;DHT22;2578;51.622;7.046;2022-12-18T11:44:25;-0.20;99.90
5118;DHT22;2578;51.622;7.046;2022-12-18T11:47:03;-0.30;99.90
5118;DHT22;2578;51.622;7.046;2022-12-18T11:49:33;-0.20;99.90
5118;DHT22;2578;51.622;7.046;2022-12-18T11:52:14;-0.10;99.90
5118;DHT22;2578;51.622;7.046;2022-12-18T11:54:40;-0.10;99.90
5118;DHT22;2578;51.622;7.046;2022-12-18T11:57:27;-0.10;99.90
5118;DHT22;2578;51.622;7.046;2022-12-18T12:00:08;0.00;99.90
5118;DHT22;2578;51.622;7.046;2022-12-18T12:08:14;-0.10;99.90
5118;DHT22;2578;51.622;7.046;2022-12-18T12:24:37;0.10;99.90
5118;DHT22;2578;51.622;7.046;2022-12-18T12:40:07;0.20;99.90
5118;DHT22;2578;51.622;7.046;2022-12-18T12:42:44;0.20;99.90
5118;DHT22;2578;51.622;7.046;2022-12-18T12:45:48;0.20;99.90
5118;DHT22;2578;51.622;7.046;2022-12-18T12:48:35;0.20;99.90
5118;DHT22;2578;51.622;7.046;2022-12-18T12:51:07;0.30;99.90
5118;DHT22;2578;51.622;7.046;2022-12-18T12:53:36;0.40;99.90
5118;DHT22;2578;51.622;7.046;2022-12-18T12:56:04;0.50;99.90
5118;DHT22;2578;51.622;7.046;2022-12-18T13:01:18;0.50;99.90
5118;DHT22;2578;51.622;7.046;2022-12-18T13:06:45;0.50;99.90
5118;DHT22;2578;51.622;7.046;2022-12-18T13:09:11;0.50;99.90
5118;DHT22;2578;51.622;7.046;2022-12-18T13:11:43;0.50;99.90
5118;DHT22;2578;51.622;7.046;2022-12-18T13:14:40;0.50;99.90
5118;DHT22;2578;51.622;7.046;2022-12-18T13:19:50;0.50;99.90
5118;DHT22;2578;51.622;7.046;2022-12-18T13:22:45;0.60;99.90
5118;DHT22;2578;51.622;7.046;2022-12-18T13:28:00;0.60;99.90
5118;DHT22;2578;51.622;7.046;2022-12-18T13:33:43;0.70;99.90
5118;DHT22;2578;51.622;7.046;2022-12-18T13:38:36;0.60;99.90
5118;DHT22;2578;51.622;7.046;2022-12-18T13:43:46;0.60;99.90
5118;DHT22;2578;51.622;7.046;2022-12-18T13:46:44;0.60;99.90
5118;DHT22;2578;51.622;7.046;2022-12-18T13:51:49;0.60;99.90
5118;DHT22;2578;51.622;7.046;2022-12-18T13:56:51;0.50;99.90
5118;DHT22;2578;51.622;7.046;2022-12-18T13:59:26;0.40;99.90
5118;DHT22;2578;51.622;7.046;2022-12-18T14:02:21;0.40;99.90
5118;DHT22;2578;51.622;7.046;2022-12-18T14:04:46;0.40;99.90
5118;DHT22;2578;51.622;7.046;2022-12-18T14:07:26;0.50;99.90
5118;DHT22;2578;51.622;7.046;2022-12-18T14:09:55;0.40;99.90
5118;DHT22;2578;51.622;7.046;2022-12-18T14:12:31;0.50;99.90
5118;DHT22;2578;51.622;7.046;2022-12-18T14:18:01;0.40;99.90
5118;DHT22;2578;51.622;7.046;2022-12-18T14:20:30;0.40;99.90
5118;DHT22;2578;51.622;7.046;2022-12-18T14:22:57;0.40;99.90
5118;DHT22;2578;51.622;7.046;2022-12-18T14:25:25;0.50;99.90
5118;DHT22;2578;51.622;7.046;2022-12-18T14:28:13;0.50;99.90
5118;DHT22;2578;51.622;7.046;2022-12-18T14:30:41;0.60;99.90
5118;DHT22;2578;51.622;7.046;2022-12-18T14:33:12;0.60;99.90
5118;DHT22;2578;51.622;7.046;2022-12-18T14:35:41;0.70;99.90
5118;DHT22;2578;51.622;7.046;2022-12-18T14:38:19;0.70;99.90
5118;DHT22;2578;51.622;7.046;2022-12-18T14:40:46;0.60;99.90
5118;DHT22;2578;51.622;7.046;2022-12-18T14:43:11;0.60;99.90
5118;DHT22;2578;51.622;7.046;2022-12-18T14:45:44;0.50;99.90
5118;DHT22;2578;51.622;7.046;2022-12-18T14:50:36;0.50;99.90
5118;DHT22;2578;51.622;7.046;2022-12-18T14:53:02;0.50;99.90
5118;DHT22;2578;51.622;7.046;2022-12-18T14:55:28;0.50;99.90
5118;DHT22;2578;51.622;7.046;2022-12-18T14:57:55;0.50;99.90
5118;DHT22;2578;51.622;7.046;2022-12-18T15:00:23;0.50;99.90
5118;DHT22;2578;51.622;7.046;2022-12-18T15:02:54;0.50;99.90
5118;DHT22;2578;51.622;7.046;2022-12-18T15:05:27;0.50;99.90
5118;DHT22;2578;51.622;7.046;2022-12-18T15:07:55;0.40;99.90
5118;DHT22;2578;51.622;7.046;2022-12-18T15:10:29;0.40;99.90
5118;DHT22;2578;51.622;7.046;2022-12-18T15:17:59;0.40;99.90
5118;DHT22;2578;51.622;7.046;2022-12-18T15:20:25;0.40;99.90
5118;DHT22;2578;51.622;7.046;2022-12-18T15:22:51;0.40;99.90
5118;DHT22;2578;51.622;7.046;2022-12-18T15:25:32;0.40;99.90
5118;DHT22;2578;51.622;7.046;2022-12-18T15:27:58;0.40;99.90
5118;DHT22;2578;51.622;7.046;2022-12-18T15:30:25;0.40;99.90
5118;DHT22;2578;51.622;7.046;2022-12-18T15:32:52;0.40;99.90
5118;DHT22;2578;51.622;7.046;2022-12-18T15:35:21;0.40;99.90
5118;DHT22;2578;51.622;7.046;2022-12-18T15:37:48;0.40;99.90
5118;DHT22;2578;51.622;7.046;2022-12-18T15:40:19;0.40;99.90
5118;DHT22;2578;51.622;7.046;2022-12-18T15:42:45;0.40;99.90
5118;DHT22;2578;51.622;7.046;2022-12-18T15:45:30;0.40;99.90
5118;DHT22;2578;51.622;7.046;2022-12-18T15:47:55;0.30;99.90
5118;DHT22;2578;51.622;7.046;2022-12-18T15:50:21;0.40;99.90
5118;DHT22;2578;51.622;7.046;2022-12-18T15:52:49;0.30;99.90
5118;DHT22;2578;51.622;7.046;2022-12-18T15:55:19;0.30;99.90
5118;DHT22;2578;51.622;7.046;2022-12-18T15:58:05;0.40;99.90
5118;DHT22;2578;51.622;7.046;2022-12-18T16:00:32;0.30;99.90
5118;DHT22;2578;51.622;7.046;2022-12-18T16:02:58;0.30;99.90
5118;DHT22;2578;51.622;7.046;2022-12-18T16:05:26;0.30;99.90
5118;DHT22;2578;51.622;7.046;2022-12-18T16:07:52;0.40;99.90
5118;DHT22;2578;51.622;7.046;2022-12-18T16:10:17;0.40;99.90
5118;DHT22;2578;51.622;7.046;2022-12-18T16:12:43;0.50;99.90
5118;DHT22;2578;51.622;7.046;2022-12-18T16:15:12;0.60;99.90
5118;DHT22;2578;51.622;7.046;2022-12-18T16:17:39;0.60;99.90
5118;DHT22;2578;51.622;7.046;2022-12-18T16:20:13;0.70;99.90
5118;DHT22;2578;51.622;7.046;2022-12-18T16:22:40;0.80;99.90
5118;DHT22;2578;51.622;7.046;2022-12-18T16:25:21;0.80;99.90
5118;DHT22;2578;51.622;7.046;2022-12-18T16:27:48;0.80;99.90
5118;DHT22;2578;51.622;7.046;2022-12-18T16:30:16;0.90;99.90
5118;DHT22;2578;51.622;7.046;2022-12-18T16:32:42;0.90;99.90
5118;DHT22;2578;51.622;7.046;2022-12-18T16:35:13;0.90;99.90
5118;DHT22;2578;51.622;7.046;2022-12-18T16:37:40;0.90;99.90
5118;DHT22;2578;51.622;7.046;2022-12-18T16:40:08;0.90;99.90
5118;DHT22;2578;51.622;7.046;2022-12-18T16:42:38;0.90;99.90
5118;DHT22;2578;51.622;7.046;2022-12-18T16:45:06;1.00;99.90
5118;DHT22;2578;51.622;7.046;2022-12-18T16:47:33;0.90;99.90
5118;DHT22;2578;51.622;7.046;2022-12-18T16:49:59;0.90;99.90
5118;DHT22;2578;51.622;7.046;2022-12-18T16:52:24;1.00;99.90
5118;DHT22;2578;51.622;7.046;2022-12-18T16:54:50;0.90;99.90
5118;DHT22;2578;51.622;7.046;2022-12-18T16:57:17;0.90;99.90
5118;DHT22;2578;51.622;7.046;2022-12-18T16:59:43;0.90;99.90
5118;DHT22;2578;51.622;7.046;2022-12-18T17:02:14;0.90;99.90
5118;DHT22;2578;51.622;7.046;2022-12-18T17:04:40;1.00;99.90
5118;DHT22;2578;51.622;7.046;2022-12-18T17:07:06;1.00;99.90
5118;DHT22;2578;51.622;7.046;2022-12-18T17:09:32;1.00;99.90
5118;DHT22;2578;51.622;7.046;2022-12-18T17:11:58;0.90;99.90
5118;DHT22;2578;51.622;7.046;2022-12-18T17:14:25;0.90;99.90
5118;DHT22;2578;51.622;7.046;2022-12-18T17:16:52;0.90;99.90
5118;DHT22;2578;51.622;7.046;2022-12-18T17:19:18;0.80;99.90
5118;DHT22;2578;51.622;7.046;2022-12-18T17:21:47;0.90;99.90
5118;DHT22;2578;51.622;7.046;2022-12-18T17:24:14;0.90;99.90
5118;DHT22;2578;51.622;7.046;2022-12-18T17:26:40;0.80;99.90
5118;DHT22;2578;51.622;7.046;2022-12-18T17:29:06;0.80;99.90
5118;DHT22;2578;51.622;7.046;2022-12-18T17:31:31;0.80;99.90
5118;DHT22;2578;51.622;7.046;2022-12-18T17:33:57;0.80;99.90
5118;DHT22;2578;51.622;7.046;2022-12-18T17:36:24;0.80;99.90
5118;DHT22;2578;51.622;7.046;2022-12-18T17:38:54;0.80;99.90
5118;DHT22;2578;51.622;7.046;2022-12-18T17:41:21;0.90;99.90
5118;DHT22;2578;51.622;7.046;2022-12-18T17:44:02;0.80;99.90
5118;DHT22;2578;51.622;7.046;2022-12-18T17:46:29;0.90;99.90
5118;DHT22;2578;51.622;7.046;2022-12-18T17:48:57;0.80;99.90
5118;DHT22;2578;51.622;7.046;2022-12-18T17:51:22;0.80;99.90
5118;DHT22;2578;51.622;7.046;2022-12-18T17:53:48;0.80;99.90
5118;DHT22;2578;51.622;7.046;2022-12-18T17:56:16;0.80;99.90
5118;DHT22;2578;51.622;7.046;2022-12-18T17:58:42;0.80;99.90
5118;DHT22;2578;51.622;7.046;2022-12-18T18:01:11;0.80;99.90
5118;DHT22;2578;51.622;7.046;2022-12-18T18:03:38;0.80;99.90
5118;DHT22;2578;51.622;7.046;2022-12-18T18:06:04;0.80;99.90
5118;DHT22;2578;51.622;7.046;2022-12-18T18:08:29;0.90;99.90
5118;DHT22;2578;51.622;7.046;2022-12-18T18:10:57;0.80;99.90
5118;DHT22;2578;51.622;7.046;2022-12-18T18:13:45;0.90;99.90